createdAt,value
2019-01-21T00:00:35.669Z,-0.75
2019-01-21T00:02:37.057Z,-0.86
2019-01-21T00:04:38.496Z,-1.13
2019-01-21T00:06:39.927Z,-0.91
2019-01-21T00:08:41.283Z,-0.97
2019-01-21T00:10:42.678Z,-0.89
2019-01-21T00:12:44.093Z,-0.81
2019-01-21T00:14:45.617Z,-1.08
2019-01-21T00:16:47.063Z,-1.12
2019-01-21T00:18:48.432Z,-1.08
2019-01-21T00:20:49.989Z,-1.17
2019-01-21T00:22:51.429Z,-1.18
2019-01-21T00:24:52.791Z,-1.15
2019-01-21T00:26:54.301Z,-1.17
2019-01-21T00:28:55.728Z,-1.23
2019-01-21T00:30:57.112Z,-1.04
2019-01-21T00:32:58.535Z,-1.02
2019-01-21T00:34:59.920Z,-1.17
2019-01-21T00:37:03.527Z,-1.24
2019-01-21T00:39:05.390Z,-1.10
2019-01-21T00:41:06.743Z,-1.06
2019-01-21T00:43:08.133Z,-1.11
2019-01-21T00:45:09.637Z,-0.99
2019-01-21T00:47:11.004Z,-0.86
2019-01-21T00:49:12.386Z,-1.03
2019-01-21T00:51:13.840Z,-0.97
2019-01-21T00:53:15.223Z,-1.12
2019-01-21T00:55:16.573Z,-0.94
2019-01-21T00:57:18.015Z,-1.28
2019-01-21T00:59:19.376Z,-1.28
2019-01-21T01:01:20.806Z,-1.25
2019-01-21T01:03:22.249Z,-1.28
2019-01-21T01:05:23.829Z,-1.14
2019-01-21T01:07:25.209Z,-1.06
2019-01-21T01:09:26.621Z,-1.06
2019-01-21T01:11:28.057Z,-1.12
2019-01-21T01:13:29.444Z,-0.96
2019-01-21T01:15:30.813Z,-1.11
2019-01-21T01:17:37.081Z,-1.05
2019-01-21T01:19:35.520Z,-1.05
2019-01-21T01:21:36.890Z,-1.07
2019-01-21T01:23:38.442Z,-1.03
2019-01-21T01:25:39.808Z,-0.97
2019-01-21T01:27:41.191Z,-1.24
2019-01-21T01:29:42.630Z,-1.15
2019-01-21T01:31:44.010Z,-1.09
2019-01-21T01:33:45.363Z,-1.11
2019-01-21T01:35:46.795Z,-1.28
2019-01-21T01:37:48.175Z,-1.13
2019-01-21T01:39:49.621Z,-1.23
2019-01-21T01:41:51.250Z,-1.13
2019-01-21T01:43:52.633Z,-1.15
2019-01-21T01:45:54.018Z,-1.16
2019-01-21T01:47:59.370Z,-1.32
2019-01-21T01:50:01.047Z,-1.37
2019-01-21T01:52:02.436Z,-1.26
2019-01-21T01:54:04.069Z,-1.26
2019-01-21T01:56:05.476Z,-1.31
2019-01-21T01:58:06.960Z,-1.09
2019-01-21T02:00:13.703Z,-1.30
2019-01-21T02:02:15.079Z,-1.12
2019-01-21T02:04:16.427Z,-1.34
2019-01-21T02:06:17.904Z,-1.32
2019-01-21T02:08:19.322Z,-1.46
2019-01-21T02:10:20.703Z,-1.42
2019-01-21T02:12:22.669Z,-1.37
2019-01-21T02:14:24.026Z,-1.45
2019-01-21T02:16:25.415Z,-1.31
2019-01-21T02:18:26.825Z,-1.38
2019-01-21T02:20:28.187Z,-1.60
2019-01-21T02:22:30.173Z,-1.40
2019-01-21T02:24:34.485Z,-1.51
2019-01-21T02:26:40.900Z,-1.50
2019-01-21T02:28:50.770Z,-1.45
2019-01-21T02:31:12.896Z,-1.65
2019-01-21T02:33:22.714Z,-1.62
2019-01-21T02:35:29.851Z,-1.62
2019-01-21T02:37:42.956Z,-1.49
2019-01-21T02:40:27.972Z,-1.33
2019-01-21T02:43:01.536Z,-1.50
2019-01-21T02:45:31.282Z,-1.48
2019-01-21T02:47:38.654Z,-1.58
2019-01-21T02:50:04.112Z,-1.54
2019-01-21T02:52:25.570Z,-1.49
2019-01-21T02:55:11.756Z,-1.51
2019-01-21T02:57:47.422Z,-1.40
2019-01-21T03:00:06.504Z,-1.46
2019-01-21T03:02:29.197Z,-1.42
2019-01-21T03:05:09.592Z,-1.44
2019-01-21T03:07:34.026Z,-1.71
2019-01-21T03:09:47.089Z,-1.49
2019-01-21T03:12:00.184Z,-1.49
2019-01-21T03:14:34.040Z,-1.54
2019-01-21T03:17:14.239Z,-1.48
2019-01-21T03:20:00.568Z,-1.36
2019-01-21T03:22:22.594Z,-1.35
2019-01-21T03:24:35.501Z,-1.19
2019-01-21T03:26:48.164Z,-1.17
2019-01-21T03:29:17.866Z,-1.33
2019-01-21T03:31:47.690Z,-1.45
2019-01-21T03:34:23.210Z,-1.53
2019-01-21T03:37:07.862Z,-1.63
2019-01-21T03:39:33.017Z,-1.62
2019-01-21T03:41:43.097Z,-1.78
2019-01-21T03:44:08.099Z,-1.68
2019-01-21T03:46:35.998Z,-1.58
2019-01-21T03:48:39.679Z,-1.70
2019-01-21T03:50:52.491Z,-1.63
2019-01-21T03:53:14.852Z,-1.42
2019-01-21T03:55:17.142Z,-1.52
2019-01-21T03:57:33.102Z,-1.27
2019-01-21T03:59:52.122Z,-1.17
2019-01-21T04:02:13.825Z,-1.20
2019-01-21T04:04:52.178Z,-1.37
2019-01-21T04:06:58.721Z,-1.43
2019-01-21T04:09:24.260Z,-1.47
2019-01-21T04:11:31.365Z,-1.53
2019-01-21T04:13:47.238Z,-1.53
2019-01-21T04:15:57.310Z,-1.56
2019-01-21T04:18:24.850Z,-1.43
2019-01-21T04:20:59.313Z,-1.62
2019-01-21T04:23:24.235Z,-1.67
2019-01-21T04:25:49.412Z,-1.56
2019-01-21T04:28:11.044Z,-1.70
2019-01-21T04:30:36.300Z,-1.76
2019-01-21T04:32:49.239Z,-1.83
2019-01-21T04:34:59.081Z,-1.93
2019-01-21T04:37:24.303Z,-2.03
2019-01-21T04:39:57.031Z,-2.09
2019-01-21T04:42:19.012Z,-1.92
2019-01-21T04:44:49.858Z,-1.98
2019-01-21T04:47:05.654Z,-1.93
2019-01-21T04:49:24.798Z,-1.79
2019-01-21T04:51:46.699Z,-1.83
2019-01-21T04:54:05.694Z,-1.72
2019-01-21T04:56:33.865Z,-1.62
2019-01-21T04:58:56.036Z,-1.67
2019-01-21T05:01:14.425Z,-1.73
2019-01-21T05:03:36.634Z,-1.84
2019-01-21T05:05:43.760Z,-1.83
2019-01-21T05:08:10.282Z,-1.94
2019-01-21T05:10:29.494Z,-1.85
2019-01-21T05:12:37.056Z,-1.73
2019-01-21T05:14:53.029Z,-1.82
2019-01-21T05:17:23.832Z,-1.70
2019-01-21T05:19:52.101Z,-1.66
2019-01-21T05:22:24.474Z,-1.56
2019-01-21T05:24:46.663Z,-1.58
2019-01-21T05:27:25.663Z,-1.61
2019-01-21T05:29:54.033Z,-1.59
2019-01-21T05:32:21.992Z,-1.87
2019-01-21T05:34:41.178Z,-1.75
2019-01-21T05:37:08.938Z,-1.80
2019-01-21T05:39:32.731Z,-1.85
2019-01-21T05:42:11.372Z,-2.01
2019-01-21T05:44:45.709Z,-2.12
2019-01-21T05:47:13.679Z,-2.05
2019-01-21T05:49:33.130Z,-1.94
2019-01-21T05:52:14.513Z,-1.74
2019-01-21T05:54:48.699Z,-1.84
2019-01-21T05:57:16.304Z,-1.79
2019-01-21T05:59:55.154Z,-2.05
2019-01-21T06:02:02.253Z,-1.97
2019-01-21T06:04:21.071Z,-1.97
2019-01-21T06:06:52.172Z,-1.79
2019-01-21T06:09:29.500Z,-1.87
2019-01-21T06:11:56.282Z,-1.82
2019-01-21T06:14:12.223Z,-1.84
2019-01-21T06:16:43.272Z,-1.86
2019-01-21T06:18:59.022Z,-1.83
2019-01-21T06:21:20.544Z,-1.84
2019-01-21T06:23:30.671Z,-1.92
2019-01-21T06:26:15.317Z,-1.91
2019-01-21T06:28:37.299Z,-1.91
2019-01-21T06:31:24.583Z,-2.02
2019-01-21T06:33:34.267Z,-1.95
2019-01-21T06:35:50.384Z,-1.88
2019-01-21T06:38:00.241Z,-1.89
2019-01-21T06:40:35.640Z,-2.02
2019-01-21T06:42:51.605Z,-2.09
2019-01-21T06:45:30.185Z,-2.11
2019-01-21T06:48:05.841Z,-2.24
2019-01-21T06:50:27.536Z,-2.13
2019-01-21T06:52:46.028Z,-2.21
2019-01-21T06:54:53.122Z,-2.19
2019-01-21T06:57:11.596Z,-2.32
2019-01-21T06:59:36.548Z,-2.18
2019-01-21T07:01:49.565Z,-2.23
2019-01-21T07:04:32.957Z,-2.25
2019-01-21T07:06:45.942Z,-2.29
2019-01-21T07:08:56.099Z,-2.23
2019-01-21T07:11:11.513Z,-2.18
2019-01-21T07:13:51.875Z,-2.17
2019-01-21T07:16:27.318Z,-2.27
2019-01-21T07:18:49.018Z,-2.34
2019-01-21T07:21:12.793Z,-2.33
2019-01-21T07:23:31.697Z,-2.42
2019-01-21T07:25:45.070Z,-2.33
2019-01-21T07:28:12.574Z,-2.28
2019-01-21T07:30:34.493Z,-2.34
2019-01-21T07:32:50.258Z,-2.42
2019-01-21T07:35:12.209Z,-2.38
2019-01-21T07:37:34.257Z,-2.32
2019-01-21T07:39:58.709Z,-2.14
2019-01-21T07:42:08.549Z,-2.48
2019-01-21T07:44:39.062Z,-2.39
2019-01-21T07:47:03.599Z,-2.46
2019-01-21T07:49:36.248Z,-2.44
2019-01-21T07:52:03.077Z,-2.34
2019-01-21T07:54:39.758Z,-2.44
2019-01-21T07:57:01.425Z,-2.57
2019-01-21T07:59:44.408Z,-2.64
2019-01-21T08:02:09.392Z,-2.74
2019-01-21T08:04:36.202Z,-2.58
2019-01-21T08:06:52.165Z,-2.35
2019-01-21T08:09:08.138Z,-2.21
2019-01-21T08:11:39.545Z,-2.42
2019-01-21T08:14:09.341Z,-2.24
2019-01-21T08:16:31.457Z,-2.30
2019-01-21T08:19:08.159Z,-2.14
2019-01-21T08:21:27.057Z,-2.08
2019-01-21T08:23:49.117Z,-2.13
2019-01-21T08:26:10.857Z,-2.06
2019-01-21T08:28:42.307Z,-2.23
2019-01-21T08:31:16.197Z,-2.24
2019-01-21T08:33:35.631Z,-2.38
2019-01-21T08:36:11.608Z,-2.28
2019-01-21T08:38:47.083Z,-2.27
2019-01-21T08:40:59.937Z,-2.11
2019-01-21T08:43:30.785Z,-2.16
2019-01-21T08:45:46.955Z,-2.25
2019-01-21T08:47:54.027Z,-2.07
2019-01-21T08:50:16.040Z,-2.01
2019-01-21T08:52:23.156Z,-2.19
2019-01-21T08:54:39.103Z,-2.04
2019-01-21T08:57:11.799Z,-2.12
2019-01-21T08:59:30.782Z,-2.19
2019-01-21T09:02:10.543Z,-2.16
2019-01-21T09:04:53.551Z,-2.22
2019-01-21T09:07:18.817Z,-2.08
2019-01-21T09:09:34.671Z,-2.10
2019-01-21T09:12:26.999Z,-2.02
2019-01-21T09:14:49.281Z,-2.21
2019-01-21T09:17:32.657Z,-2.02
2019-01-21T09:19:48.599Z,-2.00
2019-01-21T09:22:16.618Z,-1.85
2019-01-21T09:24:55.285Z,-1.81
2019-01-21T09:27:13.933Z,-1.82
2019-01-21T09:29:33.069Z,-1.69
2019-01-21T09:31:48.674Z,-1.65
2019-01-21T09:34:19.691Z,-1.88
2019-01-21T09:36:44.274Z,-2.18
2019-01-21T09:39:11.016Z,-2.12
2019-01-21T09:41:32.980Z,-2.20
2019-01-21T09:43:45.680Z,-2.30
2019-01-21T09:46:04.601Z,-2.03
2019-01-21T09:48:05.676Z,-1.92
2019-01-21T09:50:07.095Z,-1.88
2019-01-21T09:52:10.677Z,-1.84
2019-01-21T09:54:12.252Z,-1.72
2019-01-21T09:56:13.771Z,-2.02
2019-01-21T09:58:15.473Z,-2.09
2019-01-21T10:00:19.102Z,-2.25
2019-01-21T10:02:29.013Z,-2.16
2019-01-21T10:04:38.341Z,-1.91
2019-01-21T10:06:44.543Z,-2.16
2019-01-21T10:08:51.629Z,-2.22
2019-01-21T10:11:16.334Z,-1.88
2019-01-21T10:13:41.096Z,-1.67
2019-01-21T10:16:00.329Z,-1.77
2019-01-21T10:18:16.336Z,-2.06
2019-01-21T10:20:28.982Z,-2.14
2019-01-21T10:23:06.329Z,-2.02
2019-01-21T10:25:16.203Z,-1.90
2019-01-21T10:27:45.258Z,-1.76
2019-01-21T10:30:23.967Z,-1.69
2019-01-21T10:32:48.710Z,-1.73
2019-01-21T10:35:33.370Z,-1.62
2019-01-21T10:38:13.584Z,-1.95
2019-01-21T10:40:32.835Z,-1.61
2019-01-21T10:42:45.650Z,-1.67
2019-01-21T10:45:07.961Z,-1.83
2019-01-21T10:47:30.133Z,-1.54
2019-01-21T10:53:06.026Z,-1.45
2019-01-21T10:55:21.968Z,-1.29
2019-01-21T10:57:46.480Z,-1.01
2019-01-21T11:00:10.207Z,-1.26
2019-01-21T11:02:40.731Z,-1.31
2019-01-21T11:04:53.350Z,-1.01
2019-01-21T11:07:12.277Z,-1.47
2019-01-21T11:09:19.353Z,-1.48
2019-01-21T11:11:41.364Z,-1.22
2019-01-21T11:14:06.458Z,-1.49
2019-01-21T11:17:07.471Z,-1.21
2019-01-21T11:19:50.552Z,-1.13
2019-01-21T11:22:33.584Z,-1.56
2019-01-21T11:25:16.643Z,-1.65
2019-01-21T11:27:59.669Z,-1.37
2019-01-21T11:30:42.768Z,-1.68
2019-01-21T11:33:43.782Z,-1.62
2019-01-21T11:36:44.834Z,-1.54
2019-01-21T11:39:45.829Z,-1.21
2019-01-21T11:42:46.971Z,-1.06
2019-01-21T11:45:30.007Z,-1.15
2019-01-21T11:48:31.045Z,-1.11
2019-01-21T11:51:14.084Z,-1.51
2019-01-21T11:54:15.130Z,-1.39
2019-01-21T11:56:58.150Z,-1.57
2019-01-21T11:59:41.232Z,-1.57
2019-01-21T12:05:29.601Z,-0.94
2019-01-21T12:11:37.900Z,-1.01
2019-01-21T12:14:20.934Z,-1.10
2019-01-21T12:17:21.977Z,-1.29
2019-01-21T12:20:23.025Z,-1.27
2019-01-21T12:23:06.107Z,-1.11
2019-01-21T12:25:49.123Z,-1.08
2019-01-21T12:28:50.175Z,-1.13
2019-01-21T12:31:51.163Z,-1.04
2019-01-21T12:34:34.238Z,-0.72
2019-01-21T12:37:17.382Z,-0.84
2019-01-21T12:40:00.410Z,-0.86
2019-01-21T12:42:43.492Z,-0.97
2019-01-21T12:45:44.564Z,-0.70
2019-01-21T12:48:27.595Z,-0.95
2019-01-21T12:51:28.615Z,-0.86
2019-01-21T12:54:29.605Z,-0.84
2019-01-21T12:57:30.682Z,-1.13
2019-01-21T13:00:13.720Z,-0.71
2019-01-21T13:03:14.771Z,-1.11
2019-01-21T13:06:15.861Z,-1.09
2019-01-21T13:08:58.981Z,-0.72
2019-01-21T13:11:42.086Z,-0.69
2019-01-21T13:14:25.100Z,-0.56
2019-01-21T13:17:08.202Z,-0.49
2019-01-21T13:20:09.213Z,-0.68
2019-01-21T13:22:52.287Z,-0.56
2019-01-21T13:25:35.331Z,-0.50
2019-01-21T13:28:16.933Z,-0.55
2019-01-21T13:31:00.013Z,-0.81
2019-01-21T13:33:43.073Z,-0.48
2019-01-21T13:36:26.165Z,-0.35
2019-01-21T13:39:09.237Z,-0.65
2019-01-21T13:41:52.273Z,-0.98
2019-01-21T13:44:29.522Z,-0.49
2019-01-21T13:47:36.970Z,-0.65
2019-01-21T13:50:02.850Z,-0.57
2019-01-21T13:52:24.500Z,-0.71
2019-01-21T13:54:34.312Z,-0.59
2019-01-21T13:56:41.409Z,-0.69
2019-01-21T13:59:09.619Z,-0.77
2019-01-21T14:01:25.234Z,-0.78
2019-01-21T14:03:44.188Z,-0.93
2019-01-21T14:06:12.388Z,-0.48
2019-01-21T14:09:00.702Z,-0.50
2019-01-21T14:11:10.554Z,-0.60
2019-01-21T14:13:29.402Z,-0.62
2019-01-21T14:15:44.949Z,-0.67
2019-01-21T14:18:14.225Z,-0.53
2019-01-21T14:20:26.968Z,-0.57
2019-01-21T14:22:43.176Z,-0.78
2019-01-21T14:25:13.180Z,-0.75
2019-01-21T14:27:50.601Z,-0.76
2019-01-21T14:30:00.526Z,-0.67
2019-01-21T14:32:24.758Z,-0.65
2019-01-21T14:34:40.768Z,-0.52
2019-01-21T14:36:57.046Z,-0.55
2019-01-21T14:39:18.920Z,-0.74
2019-01-21T14:41:44.165Z,-0.92
2019-01-21T14:44:11.103Z,-0.98
2019-01-21T14:46:30.265Z,-1.09
2019-01-21T14:49:04.566Z,-1.11
2019-01-21T14:51:36.997Z,-1.09
2019-01-21T14:54:06.424Z,-1.10
2019-01-21T14:56:34.688Z,-1.22
2019-01-21T14:59:11.894Z,-1.34
2019-01-21T15:01:49.538Z,-1.20
2019-01-21T15:04:29.728Z,-1.31
2019-01-21T15:06:48.766Z,-1.34
2019-01-21T15:08:58.806Z,-1.26
2019-01-21T15:11:27.132Z,-1.48
2019-01-21T15:13:46.508Z,-1.42
2019-01-21T15:15:59.367Z,-1.38
2019-01-21T15:18:12.597Z,-1.44
2019-01-21T15:20:19.697Z,-1.46
2019-01-21T15:22:29.761Z,-1.58
2019-01-21T15:24:48.490Z,-1.53
2019-01-21T15:27:01.684Z,-1.55
2019-01-21T15:29:39.158Z,-1.58
2019-01-21T15:32:01.122Z,-1.48
2019-01-21T15:34:45.871Z,-1.75
2019-01-21T15:37:24.933Z,-1.70
2019-01-21T15:40:14.763Z,-1.74
2019-01-21T15:42:46.333Z,-1.78
2019-01-21T15:45:05.691Z,-1.78
2019-01-21T15:47:27.513Z,-1.85
2019-01-21T15:49:37.626Z,-1.94
2019-01-21T15:51:44.735Z,-1.86
2019-01-21T15:53:51.799Z,-1.89
2019-01-21T15:56:10.989Z,-2.01
2019-01-21T15:58:39.592Z,-1.82
2019-01-21T16:00:55.472Z,-1.98
2019-01-21T16:03:31.273Z,-1.90
2019-01-21T16:06:12.203Z,-1.94
2019-01-21T16:08:17.550Z,-1.86
2019-01-21T16:10:36.669Z,-2.03
2019-01-21T16:13:04.865Z,-1.89
2019-01-21T16:15:24.367Z,-2.14
2019-01-21T16:17:42.760Z,-1.97
2019-01-21T16:19:44.273Z,-1.94
2019-01-21T16:22:31.756Z,-1.84
2019-01-21T16:24:53.911Z,-1.91
2019-01-21T16:27:07.053Z,-1.93
2019-01-21T16:29:14.119Z,-1.89
2019-01-21T16:31:22.266Z,-1.92
2019-01-21T16:33:32.479Z,-1.93
2019-01-21T16:35:45.479Z,-1.95
2019-01-21T16:38:10.968Z,-1.94
2019-01-21T16:40:27.070Z,-1.99
2019-01-21T16:42:28.107Z,-1.92
2019-01-21T16:44:29.539Z,-1.97
2019-01-21T16:46:30.890Z,-2.02
2019-01-21T16:48:32.252Z,-1.97
2019-01-21T16:50:33.663Z,-1.88
2019-01-21T16:52:35.012Z,-2.06
2019-01-21T16:54:36.383Z,-1.97
2019-01-21T16:56:37.808Z,-1.87
2019-01-21T16:58:39.176Z,-1.88
2019-01-21T17:00:40.525Z,-1.99
2019-01-21T17:02:41.914Z,-2.02
2019-01-21T17:04:43.261Z,-2.10
2019-01-21T17:06:44.603Z,-2.21
2019-01-21T17:08:46.150Z,-2.03
2019-01-21T17:10:47.613Z,-2.04
2019-01-21T17:12:48.990Z,-1.96
2019-01-21T17:14:57.224Z,-2.07
2019-01-21T17:16:53.812Z,-2.17
2019-01-21T17:18:55.175Z,-2.27
2019-01-21T17:20:56.614Z,-2.28
2019-01-21T17:22:58.056Z,-2.17
2019-01-21T17:24:59.394Z,-2.28
2019-01-21T17:27:00.791Z,-2.25
2019-01-21T17:29:02.248Z,-2.08
2019-01-21T17:31:03.756Z,-2.21
2019-01-21T17:33:05.477Z,-2.20
2019-01-21T17:35:09.428Z,-2.15
2019-01-21T17:37:10.874Z,-2.09
2019-01-21T17:39:12.365Z,-2.18
2019-01-21T17:41:14.173Z,-2.10
2019-01-21T17:43:15.522Z,-2.08
2019-01-21T17:45:18.801Z,-2.11
2019-01-21T17:47:20.158Z,-2.02
2019-01-21T17:49:21.507Z,-1.85
2019-01-21T17:51:22.998Z,-1.95
2019-01-21T17:53:24.335Z,-1.89
2019-01-21T17:55:25.800Z,-1.98
2019-01-21T17:57:27.204Z,-2.04
2019-01-21T17:59:28.554Z,-1.97
2019-01-21T18:01:29.888Z,-2.01
2019-01-21T18:03:31.321Z,-1.95
2019-01-21T18:05:32.759Z,-1.73
2019-01-21T18:07:34.127Z,-1.77
2019-01-21T18:09:35.542Z,-1.78
2019-01-21T18:11:41.259Z,-1.91
2019-01-21T18:13:40.158Z,-1.88
2019-01-21T18:15:41.566Z,-1.90
2019-01-21T18:17:42.915Z,-1.97
2019-01-21T18:19:44.295Z,-1.88
2019-01-21T18:21:46.834Z,-1.94
2019-01-21T18:23:48.224Z,-2.06
2019-01-21T18:25:49.578Z,-2.04
2019-01-21T18:27:51.049Z,-1.97
2019-01-21T18:29:52.404Z,-2.13
2019-01-21T18:31:53.758Z,-2.12
2019-01-21T18:33:55.184Z,-2.18
2019-01-21T18:35:56.529Z,-2.31
2019-01-21T18:37:57.940Z,-2.52
2019-01-21T18:39:59.469Z,-2.57
2019-01-21T18:42:00.932Z,-2.50
2019-01-21T18:44:02.294Z,-2.41
2019-01-21T18:46:03.821Z,-2.52
2019-01-21T18:48:05.384Z,-2.59
2019-01-21T18:50:09.649Z,-2.55
2019-01-21T18:52:11.555Z,-2.56
2019-01-21T18:54:12.917Z,-2.57
2019-01-21T18:56:14.275Z,-2.58
2019-01-21T18:58:15.672Z,-2.62
2019-01-21T19:00:21.836Z,-2.68
2019-01-21T19:02:23.196Z,-2.63
2019-01-21T19:04:24.619Z,-2.80
2019-01-21T19:06:25.973Z,-2.67
2019-01-21T19:08:27.321Z,-2.62
2019-01-21T19:10:28.739Z,-2.73
2019-01-21T19:12:30.153Z,-2.81
2019-01-21T19:14:31.581Z,-2.69
2019-01-21T19:16:32.930Z,-2.66
2019-01-21T19:18:34.383Z,-2.63
2019-01-21T19:20:35.735Z,-2.69
2019-01-21T19:22:37.107Z,-2.64
2019-01-21T19:24:38.572Z,-2.91
2019-01-21T19:26:40.002Z,-2.87
2019-01-21T19:28:41.420Z,-2.97
2019-01-21T19:30:42.804Z,-2.91
2019-01-21T19:32:44.304Z,-2.94
2019-01-21T19:34:45.729Z,-2.91
2019-01-21T19:36:47.089Z,-2.83
2019-01-21T19:38:48.688Z,-2.91
2019-01-21T19:40:50.233Z,-2.92
2019-01-21T19:42:51.586Z,-2.92
2019-01-21T19:44:52.929Z,-2.94
2019-01-21T19:46:54.583Z,-2.99
2019-01-21T19:48:55.926Z,-2.89
2019-01-21T19:50:57.297Z,-2.87
2019-01-21T19:52:58.723Z,-2.92
2019-01-21T19:55:00.153Z,-2.90
2019-01-21T19:57:01.555Z,-2.88
2019-01-21T19:59:03.082Z,-2.79
2019-01-21T20:01:04.427Z,-2.67
2019-01-21T20:03:05.780Z,-2.82
2019-01-21T20:05:08.895Z,-2.86
2019-01-21T20:07:10.258Z,-2.88
2019-01-21T20:09:11.602Z,-2.82
2019-01-21T20:11:13.021Z,-2.55
2019-01-21T20:13:14.373Z,-2.71
2019-01-21T20:15:17.158Z,-2.81
2019-01-21T20:17:18.580Z,-2.74
2019-01-21T20:19:19.940Z,-2.70
2019-01-21T20:21:21.320Z,-2.78
2019-01-21T20:23:22.729Z,-2.76
2019-01-21T20:25:24.388Z,-2.83
2019-01-21T20:27:25.749Z,-2.84
2019-01-21T20:29:27.161Z,-2.89
2019-01-21T20:31:28.496Z,-2.85
2019-01-21T20:33:31.031Z,-2.93
2019-01-21T20:35:32.377Z,-2.86
2019-01-21T20:37:33.721Z,-2.76
2019-01-21T20:39:35.184Z,-2.88
2019-01-21T20:41:36.645Z,-2.96
2019-01-21T20:43:38.005Z,-3.00
2019-01-21T20:45:39.360Z,-3.04
2019-01-21T20:47:41.156Z,-3.05
2019-01-21T20:49:42.518Z,-3.08
2019-01-21T20:51:43.852Z,-3.08
2019-01-21T20:53:45.394Z,-3.07
2019-01-21T20:55:46.741Z,-2.92
2019-01-21T20:57:48.195Z,-3.02
2019-01-21T20:59:49.616Z,-2.97
2019-01-21T21:01:51.464Z,-3.09
2019-01-21T21:03:52.841Z,-2.98
2019-01-21T21:05:54.290Z,-2.89
2019-01-21T21:07:55.668Z,-2.98
2019-01-21T21:09:57.000Z,-3.07
2019-01-21T21:11:58.402Z,-3.05
2019-01-21T21:13:59.734Z,-3.11
2019-01-21T21:16:01.072Z,-3.08
2019-01-21T21:18:02.784Z,-3.04
2019-01-21T21:20:08.858Z,-3.07
2019-01-21T21:22:10.194Z,-3.08
2019-01-21T21:24:11.598Z,-3.08
2019-01-21T21:26:12.966Z,-3.08
2019-01-21T21:28:14.366Z,-3.08
2019-01-21T21:30:28.268Z,-3.09
2019-01-21T21:32:29.687Z,-3.05
2019-01-21T21:34:31.029Z,-3.05
2019-01-21T21:36:32.393Z,-3.05
2019-01-21T21:38:33.802Z,-2.95
2019-01-21T21:40:35.611Z,-2.98
2019-01-21T21:42:37.099Z,-3.13
2019-01-21T21:44:38.552Z,-3.06
2019-01-21T21:46:39.928Z,-2.98
2019-01-21T21:48:41.297Z,-3.06
2019-01-21T21:50:42.697Z,-3.02
2019-01-21T21:52:44.040Z,-2.82
2019-01-21T21:54:45.421Z,-2.74
2019-01-21T21:56:47.136Z,-2.66
2019-01-21T21:58:48.684Z,-2.86
2019-01-21T22:00:50.028Z,-2.83
2019-01-21T22:02:51.524Z,-2.85
2019-01-21T22:04:53.057Z,-2.84
2019-01-21T22:06:54.420Z,-2.79
2019-01-21T22:08:56.288Z,-2.76
2019-01-21T22:10:57.695Z,-2.87
2019-01-21T22:12:59.063Z,-2.93
2019-01-21T22:15:00.416Z,-2.76
2019-01-21T22:17:01.801Z,-2.82
2019-01-21T22:19:03.254Z,-2.78
2019-01-21T22:21:04.712Z,-2.70
2019-01-21T22:23:06.108Z,-2.69
2019-01-21T22:25:08.264Z,-2.46
2019-01-21T22:27:10.123Z,-2.40
2019-01-21T22:29:11.541Z,-2.59
2019-01-21T22:31:12.990Z,-2.51
2019-01-21T22:33:14.355Z,-2.57
2019-01-21T22:35:15.772Z,-2.55
2019-01-21T22:37:17.537Z,-2.58
2019-01-21T22:39:18.920Z,-2.59
2019-01-21T22:41:20.441Z,-2.66
2019-01-21T22:43:21.802Z,-2.54
2019-01-21T22:45:23.247Z,-2.44
2019-01-21T22:47:24.789Z,-2.58
2019-01-21T22:49:26.139Z,-2.45
2019-01-21T22:51:27.647Z,-2.51
2019-01-21T22:53:29.055Z,-2.57
2019-01-21T22:55:30.397Z,-2.61
2019-01-21T22:57:31.747Z,-2.60
2019-01-21T22:59:33.136Z,-2.57
2019-01-21T23:01:37.796Z,-2.63
2019-01-21T23:03:39.298Z,-2.43
2019-01-21T23:05:40.967Z,-2.42
2019-01-21T23:07:42.316Z,-2.27
2019-01-21T23:09:43.877Z,-2.24
2019-01-21T23:11:45.239Z,-2.30
2019-01-21T23:13:46.577Z,-2.38
2019-01-21T23:15:48.384Z,-2.33
2019-01-21T23:17:49.744Z,-2.32
2019-01-21T23:19:52.201Z,-2.37
2019-01-21T23:21:53.627Z,-2.34
2019-01-21T23:23:54.988Z,-2.23
2019-01-21T23:25:56.340Z,-2.26
2019-01-21T23:27:57.745Z,-2.27
2019-01-21T23:29:59.082Z,-2.33
2019-01-21T23:32:00.461Z,-2.23
2019-01-21T23:34:02.653Z,-2.24
2019-01-21T23:36:04.115Z,-2.16
2019-01-21T23:38:05.453Z,-2.25
2019-01-21T23:40:09.460Z,-2.33
2019-01-21T23:42:10.881Z,-2.17
2019-01-21T23:44:12.700Z,-2.13
2019-01-21T23:46:14.040Z,-2.24
2019-01-21T23:48:15.391Z,-2.19
2019-01-21T23:50:17.111Z,-2.26
2019-01-21T23:52:18.444Z,-2.33
2019-01-21T23:54:19.805Z,-2.19
2019-01-21T23:56:21.549Z,-2.23
2019-01-21T23:58:22.905Z,-2.17
